ABQ208 OPKC-OPIS
Flight info
| Callsign | ABQ208 |
|---|---|
| Flight time | 1h 54m |
| Altitude | 37000 |
| Route | BADUL J112 MOLTA J142 MATIN J121 INDEK |
| Aircraft | A320/M-SDE3FGHIRWY/LB1 |
Departure
| Time | 2026-04-26 07:25 |
|---|---|
| Airport | Jinnah International Airport (OPKC) |
Arrival
| Time | 2026-04-26 09:19 |
|---|---|
| Airport | Islamabad International Airport (OPIS) |
| Time | Latitude | Longitude | Altitude | Speed | Heading |
|---|---|---|---|---|---|
| 2026-04-26 06:57 | 24.90151 | 67.16523 | 101 ft | 0 kts | 86° |
| 2026-04-26 07:16 | 24.90149 | 67.16500 | 101 ft | 4 kts | 83° |
| 2026-04-26 07:16 | 24.90145 | 67.16470 | 100 ft | 4 kts | 77° |
| 2026-04-26 07:16 | 24.90137 | 67.16443 | 99 ft | 4 kts | 57° |
| 2026-04-26 07:16 | 24.90121 | 67.16427 | 99 ft | 3 kts | 351° |
| 2026-04-26 07:17 | 24.90118 | 67.16428 | 99 ft | 0 kts | 343° |
| 2026-04-26 07:19 | 24.90119 | 67.16427 | 99 ft | 1 kts | 343° |
| 2026-04-26 07:19 | 24.90147 | 67.16418 | 100 ft | 7 kts | 343° |
| 2026-04-26 07:19 | 24.90214 | 67.16397 | 101 ft | 13 kts | 343° |
| 2026-04-26 07:20 | 24.90315 | 67.16365 | 102 ft | 16 kts | 345° |
| 2026-04-26 07:20 | 24.90395 | 67.16379 | 102 ft | 11 kts | 60° |
| 2026-04-26 07:20 | 24.90415 | 67.16456 | 101 ft | 10 kts | 75° |
| 2026-04-26 07:20 | 24.90432 | 67.16527 | 102 ft | 9 kts | 75° |
| 2026-04-26 07:21 | 24.90448 | 67.16589 | 101 ft | 8 kts | 75° |
| 2026-04-26 07:21 | 24.90463 | 67.16648 | 101 ft | 8 kts | 74° |
| 2026-04-26 07:21 | 24.90477 | 67.16705 | 102 ft | 8 kts | 74° |
| 2026-04-26 07:21 | 24.90494 | 67.16773 | 102 ft | 10 kts | 75° |
| 2026-04-26 07:22 | 24.90515 | 67.16854 | 102 ft | 12 kts | 73° |
| 2026-04-26 07:22 | 24.90540 | 67.16949 | 102 ft | 13 kts | 73° |
| 2026-04-26 07:22 | 24.90565 | 67.17047 | 102 ft | 13 kts | 75° |
| 2026-04-26 07:22 | 24.90590 | 67.17148 | 102 ft | 14 kts | 74° |
| 2026-04-26 07:23 | 24.90616 | 67.17246 | 101 ft | 13 kts | 74° |
| 2026-04-26 07:23 | 24.90641 | 67.17344 | 102 ft | 15 kts | 73° |
| 2026-04-26 07:23 | 24.90716 | 67.17444 | 103 ft | 20 kts | 29° |
| 2026-04-26 07:23 | 24.90830 | 67.17491 | 106 ft | 14 kts | 348° |
| 2026-04-26 07:24 | 24.90860 | 67.17410 | 107 ft | 14 kts | 255° |
| 2026-04-26 07:24 | 24.90805 | 67.17197 | 107 ft | 60 kts | 254° |
| 2026-04-26 07:24 | 24.90633 | 67.16521 | 103 ft | 123 kts | 255° |
| 2026-04-26 07:24 | 24.90369 | 67.15435 | 178 ft | 164 kts | 256° |
| 2026-04-26 07:25 | 24.90057 | 67.14193 | 828 ft | 167 kts | 253° |
| 2026-04-26 07:25 | 24.89782 | 67.12951 | 1473 ft | 173 kts | 268° |
| 2026-04-26 07:25 | 24.90091 | 67.11637 | 1934 ft | 190 kts | 305° |
| 2026-04-26 07:25 | 24.91224 | 67.10792 | 2296 ft | 213 kts | 343° |
| 2026-04-26 07:26 | 24.92785 | 67.10895 | 2649 ft | 241 kts | 12° |
| 2026-04-26 07:26 | 24.94381 | 67.11733 | 3024 ft | 270 kts | 31° |
| 2026-04-26 07:26 | 24.95874 | 67.13067 | 3698 ft | 279 kts | 39° |
| 2026-04-26 07:26 | 24.97316 | 67.14543 | 4403 ft | 286 kts | 41° |
| 2026-04-26 07:27 | 24.98766 | 67.16076 | 5150 ft | 290 kts | 41° |
| 2026-04-26 07:27 | 25.00236 | 67.17617 | 5904 ft | 294 kts | 42° |
| 2026-04-26 07:27 | 25.01729 | 67.19149 | 6661 ft | 296 kts | 40° |
| 2026-04-26 07:27 | 25.03242 | 67.20671 | 7395 ft | 299 kts | 40° |
| 2026-04-26 07:28 | 25.04811 | 67.22227 | 8238 ft | 299 kts | 40° |
| 2026-04-26 07:28 | 25.06361 | 67.23754 | 9078 ft | 299 kts | 41° |
| 2026-04-26 07:28 | 25.07897 | 67.25261 | 9887 ft | 300 kts | 41° |
| 2026-04-26 07:28 | 25.09499 | 67.26830 | 10205 ft | 320 kts | 41° |
| 2026-04-26 07:29 | 25.11229 | 67.28524 | 10362 ft | 344 kts | 41° |
| 2026-04-26 07:29 | 25.13072 | 67.30332 | 10518 ft | 365 kts | 41° |
| 2026-04-26 07:29 | 25.14995 | 67.32225 | 10975 ft | 373 kts | 42° |
| 2026-04-26 07:29 | 25.16939 | 67.34140 | 11594 ft | 376 kts | 42° |
| 2026-04-26 07:30 | 25.18899 | 67.36071 | 12226 ft | 379 kts | 42° |
| 2026-04-26 07:30 | 25.20875 | 67.38019 | 12884 ft | 382 kts | 43° |
| 2026-04-26 07:30 | 25.22863 | 67.39980 | 13504 ft | 385 kts | 42° |
| 2026-04-26 07:30 | 25.24869 | 67.41957 | 14084 ft | 387 kts | 42° |
| 2026-04-26 07:31 | 25.26884 | 67.43945 | 14647 ft | 390 kts | 42° |
| 2026-04-26 07:31 | 25.28923 | 67.45954 | 15197 ft | 393 kts | 42° |
| 2026-04-26 07:31 | 25.30975 | 67.47975 | 15764 ft | 396 kts | 41° |
| 2026-04-26 07:31 | 25.33037 | 67.50009 | 16304 ft | 399 kts | 41° |
| 2026-04-26 07:32 | 25.34412 | 67.51366 | 16667 ft | 401 kts | 41° |
| 2026-04-26 07:32 | 25.36494 | 67.53424 | 17244 ft | 404 kts | 41° |
| 2026-04-26 07:32 | 25.38600 | 67.55506 | 17782 ft | 408 kts | 41° |
| 2026-04-26 07:32 | 25.40720 | 67.57604 | 18280 ft | 411 kts | 41° |
| 2026-04-26 07:33 | 25.42860 | 67.59726 | 18728 ft | 415 kts | 41° |
| 2026-04-26 07:33 | 25.45021 | 67.61867 | 19153 ft | 419 kts | 41° |
| 2026-04-26 07:33 | 25.47201 | 67.64029 | 19579 ft | 422 kts | 40° |
| 2026-04-26 07:33 | 25.49398 | 67.66213 | 19995 ft | 426 kts | 41° |
| 2026-04-26 07:34 | 25.51610 | 67.68410 | 20388 ft | 429 kts | 39° |
| 2026-04-26 07:34 | 25.53848 | 67.70626 | 20787 ft | 433 kts | 39° |
| 2026-04-26 07:34 | 25.56101 | 67.72855 | 21192 ft | 436 kts | 41° |
| 2026-04-26 07:34 | 25.58369 | 67.75104 | 21572 ft | 440 kts | 40° |
| 2026-04-26 07:35 | 25.60658 | 67.77377 | 21961 ft | 443 kts | 40° |
| 2026-04-26 07:35 | 25.62962 | 67.79666 | 22336 ft | 446 kts | 41° |
| 2026-04-26 07:35 | 25.65277 | 67.81968 | 22676 ft | 449 kts | 40° |
| 2026-04-26 07:35 | 25.67606 | 67.84287 | 23042 ft | 452 kts | 40° |
| 2026-04-26 07:36 | 25.69921 | 67.86596 | 23381 ft | 455 kts | 40° |
| 2026-04-26 07:36 | 25.72283 | 67.88951 | 23664 ft | 457 kts | 40° |
| 2026-04-26 07:36 | 25.74650 | 67.91313 | 23958 ft | 459 kts | 41° |
| 2026-04-26 07:36 | 25.77061 | 67.93719 | 24251 ft | 461 kts | 41° |
| 2026-04-26 07:37 | 25.79423 | 67.96077 | 24551 ft | 463 kts | 41° |
| 2026-04-26 07:37 | 25.81821 | 67.98472 | 24840 ft | 465 kts | 41° |
| 2026-04-26 07:37 | 25.84227 | 68.00877 | 25133 ft | 467 kts | 41° |
| 2026-04-26 07:37 | 25.86646 | 68.03300 | 25419 ft | 469 kts | 41° |
| 2026-04-26 07:38 | 25.89074 | 68.05732 | 25706 ft | 470 kts | 41° |
| 2026-04-26 07:38 | 25.91508 | 68.08166 | 25995 ft | 472 kts | 41° |
| 2026-04-26 07:38 | 25.93961 | 68.10621 | 26271 ft | 474 kts | 41° |
| 2026-04-26 07:38 | 25.96417 | 68.13082 | 26541 ft | 476 kts | 41° |
| 2026-04-26 07:39 | 25.98875 | 68.15546 | 26802 ft | 477 kts | 41° |
| 2026-04-26 07:39 | 26.01347 | 68.18025 | 27056 ft | 479 kts | 41° |
| 2026-04-26 07:39 | 26.03821 | 68.20509 | 27308 ft | 480 kts | 41° |
| 2026-04-26 07:39 | 26.06307 | 68.23006 | 27566 ft | 482 kts | 41° |
| 2026-04-26 07:40 | 26.08796 | 68.25508 | 27765 ft | 484 kts | 41° |
| 2026-04-26 07:40 | 26.11267 | 68.27994 | 27975 ft | 486 kts | 41° |
| 2026-04-26 07:40 | 26.13804 | 68.30548 | 28263 ft | 485 kts | 41° |
| 2026-04-26 07:40 | 26.16273 | 68.33039 | 28573 ft | 485 kts | 41° |
| 2026-04-26 07:41 | 26.18773 | 68.35561 | 28887 ft | 484 kts | 41° |
| 2026-04-26 07:41 | 26.21263 | 68.38074 | 29199 ft | 483 kts | 41° |
| 2026-04-26 07:41 | 26.23809 | 68.40519 | 29511 ft | 482 kts | 38° |
| 2026-04-26 07:41 | 26.26436 | 68.42844 | 29829 ft | 481 kts | 36° |
| 2026-04-26 07:42 | 26.29117 | 68.45080 | 30095 ft | 480 kts | 35° |
| 2026-04-26 07:42 | 26.31813 | 68.47267 | 30372 ft | 479 kts | 34° |
| 2026-04-26 07:42 | 26.34510 | 68.49455 | 30650 ft | 478 kts | 35° |
| 2026-04-26 07:42 | 26.37187 | 68.51662 | 30933 ft | 478 kts | 35° |
| 2026-04-26 07:43 | 26.39840 | 68.53894 | 31227 ft | 477 kts | 36° |
| 2026-04-26 07:43 | 26.42471 | 68.56146 | 31483 ft | 477 kts | 36° |
| 2026-04-26 07:43 | 26.45093 | 68.58408 | 31749 ft | 477 kts | 36° |
| 2026-04-26 07:43 | 26.47719 | 68.60673 | 32033 ft | 476 kts | 36° |
| 2026-04-26 07:44 | 26.50308 | 68.62899 | 32309 ft | 475 kts | 36° |
| 2026-04-26 07:44 | 26.52925 | 68.65143 | 32589 ft | 474 kts | 36° |
| 2026-04-26 07:44 | 26.55545 | 68.67386 | 32875 ft | 474 kts | 36° |
| 2026-04-26 07:44 | 26.58160 | 68.69626 | 33166 ft | 473 kts | 36° |
| 2026-04-26 07:45 | 26.60776 | 68.71867 | 33459 ft | 472 kts | 36° |
| 2026-04-26 07:45 | 26.63380 | 68.74089 | 33740 ft | 471 kts | 36° |
| 2026-04-26 07:45 | 26.65989 | 68.76306 | 33992 ft | 470 kts | 36° |
| 2026-04-26 07:45 | 26.68594 | 68.78512 | 34227 ft | 470 kts | 36° |
| 2026-04-26 07:46 | 26.71209 | 68.80730 | 34451 ft | 470 kts | 36° |
| 2026-04-26 07:46 | 26.73811 | 68.82942 | 34669 ft | 470 kts | 36° |
| 2026-04-26 07:46 | 26.76382 | 68.85133 | 34882 ft | 470 kts | 36° |
| 2026-04-26 07:46 | 26.78980 | 68.87354 | 35089 ft | 471 kts | 36° |
| 2026-04-26 07:47 | 26.81586 | 68.89583 | 35281 ft | 471 kts | 36° |
| 2026-04-26 07:47 | 26.84189 | 68.91809 | 35473 ft | 471 kts | 35° |
| 2026-04-26 07:47 | 26.86798 | 68.94041 | 35664 ft | 471 kts | 35° |
| 2026-04-26 07:47 | 26.89402 | 68.96266 | 35850 ft | 471 kts | 35° |
| 2026-04-26 07:48 | 26.92007 | 68.98495 | 36035 ft | 472 kts | 35° |
| 2026-04-26 07:48 | 26.94617 | 69.00730 | 36214 ft | 472 kts | 35° |
| 2026-04-26 07:48 | 26.97228 | 69.02968 | 36398 ft | 472 kts | 35° |
| 2026-04-26 07:48 | 26.99833 | 69.05203 | 36557 ft | 472 kts | 35° |
| 2026-04-26 07:49 | 27.02442 | 69.07446 | 36710 ft | 472 kts | 35° |
| 2026-04-26 07:49 | 27.07671 | 69.11943 | 36742 ft | 474 kts | 35° |
| 2026-04-26 07:50 | 27.15533 | 69.18704 | 36738 ft | 474 kts | 35° |
| 2026-04-26 07:50 | 27.20735 | 69.23189 | 36742 ft | 475 kts | 35° |
| 2026-04-26 07:51 | 27.25981 | 69.27715 | 36737 ft | 475 kts | 35° |
| 2026-04-26 07:51 | 27.31205 | 69.32282 | 36741 ft | 475 kts | 36° |
| 2026-04-26 07:52 | 27.36381 | 69.36913 | 36745 ft | 475 kts | 36° |
| 2026-04-26 07:52 | 27.41556 | 69.41563 | 36750 ft | 475 kts | 36° |
| 2026-04-26 07:53 | 27.46737 | 69.46196 | 36740 ft | 475 kts | 36° |
| 2026-04-26 07:53 | 27.51922 | 69.50819 | 36740 ft | 476 kts | 36° |
| 2026-04-26 07:54 | 27.57105 | 69.55451 | 36740 ft | 475 kts | 36° |
| 2026-04-26 07:54 | 27.62234 | 69.60056 | 36743 ft | 475 kts | 36° |
| 2026-04-26 07:55 | 27.67414 | 69.64706 | 36740 ft | 475 kts | 36° |
| 2026-04-26 07:55 | 27.72587 | 69.69352 | 36742 ft | 475 kts | 36° |
| 2026-04-26 07:56 | 27.77757 | 69.74001 | 36741 ft | 475 kts | 36° |
| 2026-04-26 07:56 | 27.82929 | 69.78659 | 36737 ft | 475 kts | 36° |
| 2026-04-26 07:57 | 27.88091 | 69.83320 | 36736 ft | 475 kts | 36° |
| 2026-04-26 07:57 | 27.93260 | 69.87978 | 36739 ft | 475 kts | 36° |
| 2026-04-26 07:58 | 27.98422 | 69.92644 | 36739 ft | 475 kts | 36° |
| 2026-04-26 07:58 | 28.03581 | 69.97318 | 36752 ft | 474 kts | 36° |
| 2026-04-26 07:59 | 28.08733 | 70.01991 | 36747 ft | 475 kts | 36° |
| 2026-04-26 07:59 | 28.13887 | 70.06663 | 36744 ft | 475 kts | 36° |
| 2026-04-26 08:00 | 28.19038 | 70.11339 | 36741 ft | 475 kts | 36° |
| 2026-04-26 08:00 | 28.24157 | 70.15996 | 36738 ft | 475 kts | 36° |
| 2026-04-26 08:01 | 28.29306 | 70.20682 | 36745 ft | 475 kts | 36° |
| 2026-04-26 08:01 | 28.34460 | 70.25386 | 36744 ft | 475 kts | 36° |
| 2026-04-26 08:02 | 28.39244 | 70.30580 | 36757 ft | 478 kts | 44° |
| 2026-04-26 08:02 | 28.43741 | 70.36090 | 36749 ft | 478 kts | 44° |
| 2026-04-26 08:03 | 28.48296 | 70.41637 | 36753 ft | 477 kts | 44° |
| 2026-04-26 08:03 | 28.52792 | 70.47134 | 36749 ft | 478 kts | 44° |
| 2026-04-26 08:04 | 28.57336 | 70.52714 | 36743 ft | 478 kts | 44° |
| 2026-04-26 08:04 | 28.61845 | 70.58262 | 36746 ft | 477 kts | 44° |
| 2026-04-26 08:05 | 28.66326 | 70.63773 | 36750 ft | 477 kts | 44° |
| 2026-04-26 08:05 | 28.70841 | 70.69319 | 36754 ft | 477 kts | 44° |
| 2026-04-26 08:06 | 28.75335 | 70.74855 | 36758 ft | 477 kts | 44° |
| 2026-04-26 08:06 | 28.79840 | 70.80427 | 36754 ft | 477 kts | 44° |
| 2026-04-26 08:07 | 28.84339 | 70.85995 | 36745 ft | 477 kts | 44° |
| 2026-04-26 08:07 | 28.88839 | 70.91562 | 36749 ft | 477 kts | 44° |
| 2026-04-26 08:08 | 28.93335 | 70.97137 | 36751 ft | 477 kts | 44° |
| 2026-04-26 08:08 | 28.97827 | 71.02716 | 36749 ft | 477 kts | 44° |
| 2026-04-26 08:09 | 29.02290 | 71.08262 | 36747 ft | 477 kts | 44° |
| 2026-04-26 08:09 | 29.06778 | 71.13850 | 36761 ft | 477 kts | 44° |
| 2026-04-26 08:10 | 29.11266 | 71.19443 | 36759 ft | 477 kts | 44° |
| 2026-04-26 08:10 | 29.15750 | 71.25046 | 36756 ft | 477 kts | 44° |
| 2026-04-26 08:11 | 29.20221 | 71.30636 | 36753 ft | 477 kts | 44° |
| 2026-04-26 08:11 | 29.24700 | 71.36252 | 36751 ft | 477 kts | 44° |
| 2026-04-26 08:12 | 29.29168 | 71.41857 | 36750 ft | 477 kts | 44° |
| 2026-04-26 08:12 | 29.33612 | 71.47497 | 36752 ft | 478 kts | 45° |
| 2026-04-26 08:13 | 29.38030 | 71.53204 | 36765 ft | 478 kts | 45° |
| 2026-04-26 08:13 | 29.42439 | 71.58914 | 36766 ft | 478 kts | 45° |
| 2026-04-26 08:14 | 29.46844 | 71.64623 | 36764 ft | 477 kts | 45° |
| 2026-04-26 08:14 | 29.51219 | 71.70275 | 36761 ft | 477 kts | 45° |
| 2026-04-26 08:15 | 29.55638 | 71.75988 | 36756 ft | 477 kts | 45° |
| 2026-04-26 08:15 | 29.60076 | 71.81732 | 36755 ft | 477 kts | 45° |
| 2026-04-26 08:16 | 29.64481 | 71.87444 | 36755 ft | 477 kts | 45° |
| 2026-04-26 08:16 | 29.68853 | 71.93125 | 36762 ft | 477 kts | 45° |
| 2026-04-26 08:17 | 29.73257 | 71.98851 | 36763 ft | 477 kts | 45° |
| 2026-04-26 08:17 | 29.77648 | 72.04581 | 36756 ft | 477 kts | 45° |
| 2026-04-26 08:18 | 29.82037 | 72.10319 | 36756 ft | 477 kts | 45° |
| 2026-04-26 08:18 | 29.86424 | 72.16061 | 36754 ft | 477 kts | 45° |
| 2026-04-26 08:19 | 29.90808 | 72.21802 | 36751 ft | 477 kts | 45° |
| 2026-04-26 08:19 | 29.95200 | 72.27546 | 36754 ft | 477 kts | 45° |
| 2026-04-26 08:20 | 29.99579 | 72.33297 | 36761 ft | 477 kts | 45° |
| 2026-04-26 08:20 | 30.03955 | 72.39055 | 36758 ft | 477 kts | 45° |
| 2026-04-26 08:21 | 30.08300 | 72.44778 | 36754 ft | 477 kts | 45° |
| 2026-04-26 08:21 | 30.12673 | 72.50541 | 36759 ft | 477 kts | 45° |
| 2026-04-26 08:22 | 30.16330 | 72.55372 | 36759 ft | 477 kts | 45° |
| 2026-04-26 08:22 | 30.20807 | 72.60942 | 36766 ft | 472 kts | 37° |
| 2026-04-26 08:23 | 30.25926 | 72.65662 | 36769 ft | 470 kts | 34° |
| 2026-04-26 08:23 | 30.31062 | 72.70348 | 36767 ft | 470 kts | 34° |
| 2026-04-26 08:24 | 30.36194 | 72.75042 | 36782 ft | 470 kts | 34° |
| 2026-04-26 08:24 | 30.41325 | 72.79742 | 36780 ft | 469 kts | 34° |
| 2026-04-26 08:25 | 30.46451 | 72.84447 | 36777 ft | 469 kts | 34° |
| 2026-04-26 08:25 | 30.51565 | 72.89143 | 36780 ft | 469 kts | 34° |
| 2026-04-26 08:26 | 30.56678 | 72.93850 | 36781 ft | 469 kts | 34° |
| 2026-04-26 08:26 | 30.61753 | 72.98532 | 36789 ft | 469 kts | 34° |
| 2026-04-26 08:27 | 30.66866 | 73.03244 | 36810 ft | 468 kts | 34° |
| 2026-04-26 08:27 | 30.71969 | 73.07953 | 36803 ft | 468 kts | 34° |
| 2026-04-26 08:28 | 30.77061 | 73.12664 | 36799 ft | 467 kts | 34° |
| 2026-04-26 08:28 | 30.82145 | 73.17375 | 36795 ft | 467 kts | 34° |
| 2026-04-26 08:29 | 30.87192 | 73.22059 | 36795 ft | 467 kts | 34° |
| 2026-04-26 08:29 | 30.92270 | 73.26770 | 36790 ft | 467 kts | 34° |
| 2026-04-26 08:30 | 30.97343 | 73.31494 | 36794 ft | 466 kts | 34° |
| 2026-04-26 08:30 | 31.02405 | 73.36216 | 36806 ft | 466 kts | 34° |
| 2026-04-26 08:31 | 31.07460 | 73.40935 | 36801 ft | 465 kts | 34° |
| 2026-04-26 08:31 | 31.12509 | 73.45649 | 36805 ft | 465 kts | 34° |
| 2026-04-26 08:32 | 31.17559 | 73.50365 | 36797 ft | 464 kts | 34° |
| 2026-04-26 08:32 | 31.22593 | 73.55085 | 36795 ft | 464 kts | 34° |
| 2026-04-26 08:33 | 31.27626 | 73.59819 | 36800 ft | 464 kts | 34° |
| 2026-04-26 08:33 | 31.32658 | 73.64553 | 36804 ft | 464 kts | 34° |
| 2026-04-26 08:34 | 31.37658 | 73.69256 | 36803 ft | 464 kts | 34° |
| 2026-04-26 08:34 | 31.42701 | 73.73998 | 36797 ft | 464 kts | 34° |
| 2026-04-26 08:35 | 31.47729 | 73.78740 | 36798 ft | 464 kts | 34° |
| 2026-04-26 08:35 | 31.52765 | 73.83496 | 36794 ft | 464 kts | 34° |
| 2026-04-26 08:36 | 31.57793 | 73.88247 | 36790 ft | 464 kts | 34° |
| 2026-04-26 08:36 | 31.62819 | 73.93017 | 36804 ft | 465 kts | 34° |
| 2026-04-26 08:37 | 31.68016 | 73.97464 | 36797 ft | 457 kts | 22° |
| 2026-04-26 08:37 | 31.73858 | 73.99901 | 36790 ft | 444 kts | 5° |
| 2026-04-26 08:38 | 31.79952 | 74.00466 | 36793 ft | 438 kts | 358° |
| 2026-04-26 08:38 | 31.86046 | 74.00817 | 36803 ft | 438 kts | 358° |
| 2026-04-26 08:39 | 31.92071 | 74.00477 | 36811 ft | 429 kts | 343° |
| 2026-04-26 08:39 | 31.97508 | 73.97907 | 36788 ft | 419 kts | 324° |
| 2026-04-26 08:40 | 32.02181 | 73.93846 | 36783 ft | 417 kts | 320° |
| 2026-04-26 08:40 | 32.06813 | 73.89706 | 36781 ft | 418 kts | 320° |
| 2026-04-26 08:41 | 32.11448 | 73.85557 | 36802 ft | 418 kts | 320° |
| 2026-04-26 08:41 | 32.16081 | 73.81403 | 36787 ft | 418 kts | 320° |
| 2026-04-26 08:42 | 32.20713 | 73.77246 | 36800 ft | 418 kts | 320° |
| 2026-04-26 08:42 | 32.25347 | 73.73082 | 36799 ft | 418 kts | 320° |
| 2026-04-26 08:43 | 32.29976 | 73.68916 | 36789 ft | 418 kts | 320° |
| 2026-04-26 08:43 | 32.34611 | 73.64748 | 36795 ft | 418 kts | 320° |
| 2026-04-26 08:44 | 32.39203 | 73.60617 | 36434 ft | 417 kts | 320° |
| 2026-04-26 08:44 | 32.41543 | 73.58510 | 35651 ft | 417 kts | 320° |
| 2026-04-26 08:44 | 32.43850 | 73.56428 | 35016 ft | 415 kts | 320° |
| 2026-04-26 08:45 | 32.46133 | 73.54363 | 34237 ft | 417 kts | 320° |
| 2026-04-26 08:45 | 32.48440 | 73.52275 | 33550 ft | 416 kts | 320° |
| 2026-04-26 08:45 | 32.50703 | 73.50223 | 32898 ft | 413 kts | 320° |
| 2026-04-26 08:45 | 32.52991 | 73.48148 | 32296 ft | 410 kts | 320° |
| 2026-04-26 08:46 | 32.55211 | 73.46136 | 31724 ft | 406 kts | 321° |
| 2026-04-26 08:46 | 32.57445 | 73.44108 | 31163 ft | 402 kts | 321° |
| 2026-04-26 08:46 | 32.59640 | 73.42113 | 30639 ft | 399 kts | 321° |
| 2026-04-26 08:46 | 32.61849 | 73.40107 | 30114 ft | 395 kts | 321° |
| 2026-04-26 08:47 | 32.64032 | 73.38124 | 28984 ft | 402 kts | 321° |
| 2026-04-26 08:47 | 32.66301 | 73.36058 | 27878 ft | 427 kts | 321° |
| 2026-04-26 08:47 | 32.68700 | 73.33871 | 26853 ft | 442 kts | 321° |
| 2026-04-26 08:47 | 32.71161 | 73.31625 | 26258 ft | 449 kts | 321° |
| 2026-04-26 08:48 | 32.73659 | 73.29368 | 25817 ft | 455 kts | 323° |
| 2026-04-26 08:48 | 32.76418 | 73.27479 | 25396 ft | 462 kts | 334° |
| 2026-04-26 08:48 | 32.79470 | 73.26236 | 24970 ft | 468 kts | 344° |
| 2026-04-26 08:48 | 32.82707 | 73.25608 | 24559 ft | 472 kts | 349° |
| 2026-04-26 08:49 | 32.85966 | 73.25078 | 24159 ft | 472 kts | 349° |
| 2026-04-26 08:49 | 32.89218 | 73.24542 | 23755 ft | 471 kts | 349° |
| 2026-04-26 08:49 | 32.92452 | 73.24003 | 23351 ft | 469 kts | 349° |
| 2026-04-26 08:49 | 32.95692 | 73.23463 | 22882 ft | 467 kts | 349° |
| 2026-04-26 08:50 | 32.98892 | 73.22928 | 22436 ft | 464 kts | 349° |
| 2026-04-26 08:50 | 33.02075 | 73.22395 | 21972 ft | 461 kts | 349° |
| 2026-04-26 08:50 | 33.05245 | 73.21864 | 21521 ft | 458 kts | 349° |
| 2026-04-26 08:50 | 33.08388 | 73.21342 | 21089 ft | 455 kts | 349° |
| 2026-04-26 08:51 | 33.14516 | 73.20334 | 20204 ft | 431 kts | 349° |
| 2026-04-26 08:51 | 33.17430 | 73.19850 | 19785 ft | 421 kts | 349° |
| 2026-04-26 08:51 | 33.20303 | 73.19367 | 19365 ft | 412 kts | 349° |
| 2026-04-26 08:52 | 33.23089 | 73.18898 | 18957 ft | 405 kts | 349° |
| 2026-04-26 08:52 | 33.25858 | 73.18430 | 18550 ft | 398 kts | 349° |
| 2026-04-26 08:52 | 33.28546 | 73.17978 | 18152 ft | 392 kts | 349° |
| 2026-04-26 08:52 | 33.31232 | 73.17530 | 17696 ft | 386 kts | 349° |
| 2026-04-26 08:53 | 33.33874 | 73.17088 | 17236 ft | 381 kts | 349° |
| 2026-04-26 08:53 | 33.36485 | 73.16650 | 16790 ft | 376 kts | 349° |
| 2026-04-26 08:53 | 33.39060 | 73.16214 | 16346 ft | 371 kts | 350° |
| 2026-04-26 08:53 | 33.41590 | 73.15718 | 15906 ft | 365 kts | 343° |
| 2026-04-26 08:54 | 33.43888 | 73.14557 | 15476 ft | 357 kts | 326° |
| 2026-04-26 08:54 | 33.45745 | 73.12635 | 15051 ft | 351 kts | 308° |
| 2026-04-26 08:54 | 33.46994 | 73.10152 | 14646 ft | 347 kts | 291° |
| 2026-04-26 08:54 | 33.47538 | 73.07360 | 14223 ft | 345 kts | 274° |
| 2026-04-26 08:55 | 33.47349 | 73.04507 | 13814 ft | 344 kts | 257° |
| 2026-04-26 08:55 | 33.46449 | 73.01859 | 13381 ft | 344 kts | 239° |
| 2026-04-26 08:55 | 33.44937 | 72.99690 | 13126 ft | 337 kts | 223° |
| 2026-04-26 08:55 | 33.42998 | 72.98166 | 12892 ft | 331 kts | 205° |
| 2026-04-26 08:56 | 33.40817 | 72.97402 | 12662 ft | 324 kts | 188° |
| 2026-04-26 08:56 | 33.39333 | 72.97318 | 12511 ft | 320 kts | 179° |
| 2026-04-26 08:56 | 33.36405 | 72.97573 | 12211 ft | 311 kts | 174° |
| 2026-04-26 08:56 | 33.34282 | 72.97902 | 11988 ft | 305 kts | 173° |
| 2026-04-26 08:57 | 33.32200 | 72.98265 | 11759 ft | 299 kts | 173° |
| 2026-04-26 08:57 | 33.30159 | 72.98621 | 11546 ft | 294 kts | 173° |
| 2026-04-26 08:57 | 33.28174 | 72.98971 | 11328 ft | 290 kts | 170° |
| 2026-04-26 08:57 | 33.26272 | 72.99734 | 11112 ft | 288 kts | 155° |
| 2026-04-26 08:58 | 33.24582 | 73.01040 | 10883 ft | 285 kts | 140° |
| 2026-04-26 08:58 | 33.23267 | 73.02739 | 10683 ft | 281 kts | 125° |
| 2026-04-26 08:58 | 33.22333 | 73.04793 | 10463 ft | 275 kts | 110° |
| 2026-04-26 08:58 | 33.21866 | 73.06946 | 10260 ft | 269 kts | 95° |
| 2026-04-26 08:59 | 33.21838 | 73.09143 | 10046 ft | 262 kts | 81° |
| 2026-04-26 08:59 | 33.22231 | 73.11241 | 9838 ft | 257 kts | 66° |
| 2026-04-26 08:59 | 33.22996 | 73.13143 | 9630 ft | 253 kts | 53° |
| 2026-04-26 08:59 | 33.24071 | 73.14774 | 9399 ft | 247 kts | 40° |
| 2026-04-26 09:00 | 33.25387 | 73.16050 | 9174 ft | 242 kts | 27° |
| 2026-04-26 09:00 | 33.26874 | 73.16942 | 8952 ft | 237 kts | 15° |
| 2026-04-26 09:00 | 33.28456 | 73.17430 | 8723 ft | 233 kts | 3° |
| 2026-04-26 09:00 | 33.30052 | 73.17522 | 8505 ft | 228 kts | 354° |
| 2026-04-26 09:01 | 33.31632 | 73.17371 | 8292 ft | 227 kts | 351° |
| 2026-04-26 09:01 | 33.33195 | 73.17139 | 8073 ft | 226 kts | 349° |
| 2026-04-26 09:01 | 33.34744 | 73.16890 | 7887 ft | 223 kts | 351° |
| 2026-04-26 09:01 | 33.36290 | 73.16641 | 7812 ft | 224 kts | 349° |
| 2026-04-26 09:02 | 33.37833 | 73.16395 | 7817 ft | 224 kts | 350° |
| 2026-04-26 09:02 | 33.39378 | 73.16150 | 7818 ft | 224 kts | 349° |
| 2026-04-26 09:02 | 33.40921 | 73.15894 | 7818 ft | 224 kts | 345° |
| 2026-04-26 09:02 | 33.42293 | 73.15089 | 7818 ft | 219 kts | 316° |
| 2026-04-26 09:03 | 33.43113 | 73.13584 | 7816 ft | 218 kts | 287° |
| 2026-04-26 09:03 | 33.43247 | 73.12388 | 7822 ft | 222 kts | 267° |
| 2026-04-26 09:03 | 33.42431 | 73.10134 | 7824 ft | 232 kts | 228° |
| 2026-04-26 09:03 | 33.41014 | 73.09180 | 7824 ft | 241 kts | 194° |
| 2026-04-26 09:04 | 33.39320 | 73.09211 | 7825 ft | 247 kts | 175° |
| 2026-04-26 09:04 | 33.37610 | 73.09473 | 7825 ft | 248 kts | 174° |
| 2026-04-26 09:04 | 33.35908 | 73.09739 | 7822 ft | 245 kts | 175° |
| 2026-04-26 09:04 | 33.34217 | 73.10001 | 7816 ft | 245 kts | 175° |
| 2026-04-26 09:05 | 33.32599 | 73.10642 | 7818 ft | 250 kts | 143° |
| 2026-04-26 09:05 | 33.31811 | 73.11630 | 7815 ft | 249 kts | 118° |
| 2026-04-26 09:05 | 33.31380 | 73.13577 | 7810 ft | 244 kts | 82° |
| 2026-04-26 09:05 | 33.31918 | 73.15443 | 7810 ft | 236 kts | 47° |
| 2026-04-26 09:06 | 33.33172 | 73.16620 | 7810 ft | 228 kts | 17° |
| 2026-04-26 09:06 | 33.34716 | 73.16842 | 7809 ft | 223 kts | 350° |
| 2026-04-26 09:06 | 33.36257 | 73.16619 | 7809 ft | 225 kts | 350° |
| 2026-04-26 09:06 | 33.37816 | 73.16382 | 7816 ft | 226 kts | 350° |
| 2026-04-26 09:07 | 33.39375 | 73.16145 | 7818 ft | 226 kts | 350° |
| 2026-04-26 09:07 | 33.40922 | 73.15894 | 7812 ft | 223 kts | 345° |
| 2026-04-26 09:07 | 33.42294 | 73.15095 | 7815 ft | 222 kts | 316° |
| 2026-04-26 09:07 | 33.43133 | 73.13563 | 7816 ft | 223 kts | 287° |
| 2026-04-26 09:08 | 33.43192 | 73.11719 | 7826 ft | 226 kts | 258° |
| 2026-04-26 09:08 | 33.42434 | 73.10078 | 7826 ft | 232 kts | 227° |
| 2026-04-26 09:08 | 33.41040 | 73.09146 | 7825 ft | 239 kts | 193° |
| 2026-04-26 09:08 | 33.39369 | 73.09163 | 7824 ft | 244 kts | 175° |
| 2026-04-26 09:09 | 33.37667 | 73.09421 | 7822 ft | 247 kts | 175° |
| 2026-04-26 09:09 | 33.35959 | 73.09688 | 7822 ft | 247 kts | 174° |
| 2026-04-26 09:09 | 33.34266 | 73.09950 | 7816 ft | 245 kts | 174° |
| 2026-04-26 09:09 | 33.32642 | 73.10553 | 7813 ft | 249 kts | 145° |
| 2026-04-26 09:10 | 33.31555 | 73.12127 | 7814 ft | 250 kts | 108° |
| 2026-04-26 09:10 | 33.31410 | 73.14145 | 7811 ft | 243 kts | 73° |
| 2026-04-26 09:10 | 33.32196 | 73.15866 | 7812 ft | 235 kts | 38° |
| 2026-04-26 09:10 | 33.33581 | 73.16783 | 7811 ft | 227 kts | 8° |
| 2026-04-26 09:11 | 33.35133 | 73.16775 | 7808 ft | 223 kts | 349° |
| 2026-04-26 09:11 | 33.36667 | 73.16542 | 7813 ft | 224 kts | 350° |
| 2026-04-26 09:11 | 33.38213 | 73.16305 | 7814 ft | 223 kts | 350° |
| 2026-04-26 09:11 | 33.39756 | 73.16072 | 7816 ft | 225 kts | 349° |
| 2026-04-26 09:12 | 33.41285 | 73.15769 | 7814 ft | 221 kts | 338° |
| 2026-04-26 09:12 | 33.42554 | 73.14771 | 7816 ft | 219 kts | 309° |
| 2026-04-26 09:12 | 33.43220 | 73.13168 | 7815 ft | 220 kts | 281° |
| 2026-04-26 09:12 | 33.43224 | 73.11335 | 7669 ft | 219 kts | 270° |
| 2026-04-26 09:13 | 33.43409 | 73.09572 | 7344 ft | 215 kts | 291° |
| 2026-04-26 09:13 | 33.44215 | 73.08086 | 6793 ft | 215 kts | 318° |
| 2026-04-26 09:13 | 33.45541 | 73.07193 | 6160 ft | 222 kts | 336° |
| 2026-04-26 09:13 | 33.46961 | 73.06484 | 5640 ft | 221 kts | 335° |
| 2026-04-26 09:14 | 33.48377 | 73.05774 | 5131 ft | 221 kts | 335° |
| 2026-04-26 09:14 | 33.49758 | 73.05052 | 4900 ft | 210 kts | 329° |
| 2026-04-26 09:14 | 33.50876 | 73.03991 | 4806 ft | 204 kts | 311° |
| 2026-04-26 09:14 | 33.51594 | 73.02576 | 4589 ft | 195 kts | 291° |
| 2026-04-26 09:15 | 33.51901 | 73.01023 | 4358 ft | 188 kts | 281° |
| 2026-04-26 09:15 | 33.52142 | 72.99501 | 4131 ft | 184 kts | 283° |
| 2026-04-26 09:15 | 33.52382 | 72.97985 | 3901 ft | 186 kts | 281° |
| 2026-04-26 09:15 | 33.52622 | 72.96465 | 3670 ft | 182 kts | 283° |
| 2026-04-26 09:16 | 33.52843 | 72.95056 | 3447 ft | 162 kts | 284° |
| 2026-04-26 09:16 | 33.53042 | 72.93793 | 3251 ft | 147 kts | 284° |
| 2026-04-26 09:16 | 33.53229 | 72.92612 | 3081 ft | 140 kts | 284° |
| 2026-04-26 09:16 | 33.53408 | 72.91481 | 2900 ft | 140 kts | 286° |
| 2026-04-26 09:17 | 33.53584 | 72.90369 | 2725 ft | 134 kts | 284° |
| 2026-04-26 09:17 | 33.53758 | 72.89268 | 2560 ft | 133 kts | 283° |
| 2026-04-26 09:17 | 33.53934 | 72.88153 | 2409 ft | 137 kts | 283° |
| 2026-04-26 09:17 | 33.54107 | 72.87051 | 2226 ft | 133 kts | 283° |
| 2026-04-26 09:18 | 33.54280 | 72.85955 | 2038 ft | 134 kts | 284° |
| 2026-04-26 09:18 | 33.54453 | 72.84857 | 1891 ft | 134 kts | 282° |
| 2026-04-26 09:18 | 33.54619 | 72.83769 | 1766 ft | 129 kts | 283° |
| 2026-04-26 09:18 | 33.54767 | 72.82858 | 1764 ft | 89 kts | 279° |
| 2026-04-26 09:19 | 33.54847 | 72.82337 | 1757 ft | 40 kts | 281° |
| 2026-04-26 09:19 | 33.54892 | 72.82035 | 1758 ft | 35 kts | 280° |
| 2026-04-26 09:19 | 33.54950 | 72.81790 | 1762 ft | 28 kts | 299° |
| 2026-04-26 09:19 | 33.55060 | 72.81617 | 1761 ft | 19 kts | 309° |
| 2026-04-26 09:20 | 33.55171 | 72.81598 | 1750 ft | 20 kts | 9° |
| 2026-04-26 09:20 | 33.55301 | 72.81623 | 1770 ft | 16 kts | 24° |
| 2026-04-26 09:20 | 33.55324 | 72.81737 | 1769 ft | 14 kts | 101° |
| 2026-04-26 09:20 | 33.55308 | 72.81847 | 1769 ft | 13 kts | 100° |
| 2026-04-26 09:21 | 33.55293 | 72.81947 | 1770 ft | 12 kts | 100° |
| 2026-04-26 09:21 | 33.55278 | 72.82040 | 1768 ft | 11 kts | 100° |
| 2026-04-26 09:21 | 33.55261 | 72.82150 | 1768 ft | 16 kts | 100° |
| 2026-04-26 09:21 | 33.55238 | 72.82300 | 1771 ft | 21 kts | 101° |
| 2026-04-26 09:22 | 33.55220 | 72.82455 | 1768 ft | 16 kts | 83° |
| 2026-04-26 09:22 | 33.55226 | 72.82576 | 1772 ft | 12 kts | 52° |
| 2026-04-26 09:22 | 33.55311 | 72.82613 | 1772 ft | 15 kts | 11° |
| 2026-04-26 09:22 | 33.55412 | 72.82648 | 1771 ft | 13 kts | 48° |
| 2026-04-26 09:23 | 33.55470 | 72.82752 | 1770 ft | 16 kts | 55° |
| 2026-04-26 09:23 | 33.55530 | 72.82857 | 1770 ft | 15 kts | 56° |
| 2026-04-26 09:23 | 33.55590 | 72.82960 | 1770 ft | 15 kts | 55° |
| 2026-04-26 09:23 | 33.55650 | 72.83060 | 1770 ft | 14 kts | 47° |
| 2026-04-26 09:24 | 33.55737 | 72.83090 | 1772 ft | 11 kts | 10° |
| 2026-04-26 09:24 | 33.55784 | 72.83120 | 1772 ft | 4 kts | 81° |
| 2026-04-26 09:24 | 33.55782 | 72.83150 | 1771 ft | 3 kts | 101° |
| 2026-04-26 09:24 | 33.55779 | 72.83171 | 1771 ft | 2 kts | 101° |
| 2026-04-26 09:25 | 33.55776 | 72.83190 | 1770 ft | 2 kts | 100° |
| 2026-04-26 09:25 | 33.55774 | 72.83200 | 1770 ft | 0 kts | 99° |